sensor_id;sensor_type;location;lat;lon;timestamp;P1;durP1;ratioP1;P2;durP2;ratioP2
78406;SDS011;67692;51.074;-1.790;2024-01-07T00:00:30;14.82;;;4.90;;
78406;SDS011;67692;51.074;-1.790;2024-01-07T00:02:57;10.43;;;4.75;;
78406;SDS011;67692;51.074;-1.790;2024-01-07T00:05:25;11.25;;;4.20;;
78406;SDS011;67692;51.074;-1.790;2024-01-07T00:07:51;14.90;;;5.05;;
78406;SDS011;67692;51.074;-1.790;2024-01-07T00:10:18;12.93;;;4.82;;
78406;SDS011;67692;51.074;-1.790;2024-01-07T00:12:45;14.00;;;4.32;;
78406;SDS011;67692;51.074;-1.790;2024-01-07T00:15:11;10.25;;;4.63;;
78406;SDS011;67692;51.074;-1.790;2024-01-07T00:17:38;13.82;;;4.70;;
78406;SDS011;67692;51.074;-1.790;2024-01-07T00:20:05;9.00;;;4.10;;
78406;SDS011;67692;51.074;-1.790;2024-01-07T00:22:34;8.95;;;3.78;;
78406;SDS011;67692;51.074;-1.790;2024-01-07T00:25:01;9.73;;;4.40;;
78406;SDS011;67692;51.074;-1.790;2024-01-07T00:27:28;10.73;;;4.03;;
78406;SDS011;67692;51.074;-1.790;2024-01-07T00:29:55;8.27;;;4.05;;
78406;SDS011;67692;51.074;-1.790;2024-01-07T00:32:21;9.85;;;4.65;;
78406;SDS011;67692;51.074;-1.790;2024-01-07T00:34:48;13.48;;;3.58;;
78406;SDS011;67692;51.074;-1.790;2024-01-07T00:37:15;10.10;;;4.97;;
78406;SDS011;67692;51.074;-1.790;2024-01-07T00:39:43;9.68;;;4.00;;
78406;SDS011;67692;51.074;-1.790;2024-01-07T00:42:11;12.10;;;4.13;;
78406;SDS011;67692;51.074;-1.790;2024-01-07T00:44:37;12.20;;;4.30;;
78406;SDS011;67692;51.074;-1.790;2024-01-07T00:47:04;9.77;;;3.65;;
78406;SDS011;67692;51.074;-1.790;2024-01-07T00:49:31;8.05;;;3.55;;
78406;SDS011;67692;51.074;-1.790;2024-01-07T00:51:57;8.38;;;3.90;;
78406;SDS011;67692;51.074;-1.790;2024-01-07T00:54:24;10.32;;;4.22;;
78406;SDS011;67692;51.074;-1.790;2024-01-07T00:56:52;10.32;;;3.95;;
78406;SDS011;67692;51.074;-1.790;2024-01-07T00:59:18;8.25;;;3.22;;
78406;SDS011;67692;51.074;-1.790;2024-01-07T01:01:45;10.35;;;3.88;;
78406;SDS011;67692;51.074;-1.790;2024-01-07T01:04:12;15.10;;;4.68;;
78406;SDS011;67692;51.074;-1.790;2024-01-07T01:06:38;10.68;;;3.63;;
78406;SDS011;67692;51.074;-1.790;2024-01-07T01:09:05;8.35;;;3.90;;
78406;SDS011;67692;51.074;-1.790;2024-01-07T01:11:32;11.30;;;4.15;;
78406;SDS011;67692;51.074;-1.790;2024-01-07T01:14:00;10.57;;;4.20;;
78406;SDS011;67692;51.074;-1.790;2024-01-07T01:16:27;10.30;;;4.00;;
78406;SDS011;67692;51.074;-1.790;2024-01-07T01:18:54;10.45;;;4.50;;
78406;SDS011;67692;51.074;-1.790;2024-01-07T01:21:20;9.25;;;4.40;;
78406;SDS011;67692;51.074;-1.790;2024-01-07T01:23:48;9.50;;;4.05;;
78406;SDS011;67692;51.074;-1.790;2024-01-07T01:26:15;10.52;;;4.07;;
78406;SDS011;67692;51.074;-1.790;2024-01-07T01:28:41;10.38;;;4.72;;
78406;SDS011;67692;51.074;-1.790;2024-01-07T01:31:09;12.80;;;4.95;;
78406;SDS011;67692;51.074;-1.790;2024-01-07T01:33:39;12.25;;;5.00;;
78406;SDS011;67692;51.074;-1.790;2024-01-07T01:36:06;12.07;;;5.28;;
78406;SDS011;67692;51.074;-1.790;2024-01-07T01:38:33;13.63;;;4.78;;
78406;SDS011;67692;51.074;-1.790;2024-01-07T01:40:59;12.43;;;5.30;;
78406;SDS011;67692;51.074;-1.790;2024-01-07T01:43:26;12.10;;;5.70;;
78406;SDS011;67692;51.074;-1.790;2024-01-07T01:45:54;14.85;;;5.53;;
78406;SDS011;67692;51.074;-1.790;2024-01-07T01:48:23;12.20;;;5.45;;
78406;SDS011;67692;51.074;-1.790;2024-01-07T01:50:50;18.58;;;5.90;;
78406;SDS011;67692;51.074;-1.790;2024-01-07T01:53:20;13.73;;;5.88;;
78406;SDS011;67692;51.074;-1.790;2024-01-07T01:55:46;17.08;;;7.18;;
78406;SDS011;67692;51.074;-1.790;2024-01-07T01:58:14;21.10;;;6.57;;
78406;SDS011;67692;51.074;-1.790;2024-01-07T02:00:41;13.68;;;7.28;;
78406;SDS011;67692;51.074;-1.790;2024-01-07T02:03:08;14.55;;;6.90;;
78406;SDS011;67692;51.074;-1.790;2024-01-07T02:05:36;15.93;;;6.72;;
78406;SDS011;67692;51.074;-1.790;2024-01-07T02:08:03;17.92;;;8.07;;
78406;SDS011;67692;51.074;-1.790;2024-01-07T02:10:32;18.60;;;7.38;;
78406;SDS011;67692;51.074;-1.790;2024-01-07T02:12:59;21.40;;;7.32;;
78406;SDS011;67692;51.074;-1.790;2024-01-07T02:15:26;19.67;;;7.82;;
78406;SDS011;67692;51.074;-1.790;2024-01-07T02:17:53;16.13;;;7.22;;
78406;SDS011;67692;51.074;-1.790;2024-01-07T02:20:19;16.55;;;7.28;;
78406;SDS011;67692;51.074;-1.790;2024-01-07T02:22:47;15.75;;;6.95;;
78406;SDS011;67692;51.074;-1.790;2024-01-07T02:25:15;20.38;;;8.30;;
78406;SDS011;67692;51.074;-1.790;2024-01-07T02:27:42;16.10;;;7.18;;
78406;SDS011;67692;51.074;-1.790;2024-01-07T02:30:09;17.95;;;8.73;;
78406;SDS011;67692;51.074;-1.790;2024-01-07T02:32:36;17.15;;;6.88;;
78406;SDS011;67692;51.074;-1.790;2024-01-07T02:35:03;17.50;;;8.20;;
78406;SDS011;67692;51.074;-1.790;2024-01-07T02:37:30;19.35;;;7.43;;
78406;SDS011;67692;51.074;-1.790;2024-01-07T02:39:57;14.85;;;7.18;;
78406;SDS011;67692;51.074;-1.790;2024-01-07T02:42:25;17.25;;;6.55;;
78406;SDS011;67692;51.074;-1.790;2024-01-07T02:44:52;20.33;;;8.32;;
78406;SDS011;67692;51.074;-1.790;2024-01-07T02:47:18;18.92;;;8.57;;
78406;SDS011;67692;51.074;-1.790;2024-01-07T02:49:45;18.38;;;7.90;;
78406;SDS011;67692;51.074;-1.790;2024-01-07T02:52:12;20.25;;;7.97;;
78406;SDS011;67692;51.074;-1.790;2024-01-07T02:54:38;15.60;;;6.97;;
78406;SDS011;67692;51.074;-1.790;2024-01-07T02:57:05;16.38;;;7.00;;
78406;SDS011;67692;51.074;-1.790;2024-01-07T02:59:33;16.85;;;7.57;;
78406;SDS011;67692;51.074;-1.790;2024-01-07T03:01:59;16.40;;;7.45;;
78406;SDS011;67692;51.074;-1.790;2024-01-07T03:04:26;17.25;;;5.88;;
78406;SDS011;67692;51.074;-1.790;2024-01-07T03:06:53;21.67;;;8.10;;
78406;SDS011;67692;51.074;-1.790;2024-01-07T03:09:19;18.23;;;7.18;;
78406;SDS011;67692;51.074;-1.790;2024-01-07T03:11:46;19.13;;;7.60;;
78406;SDS011;67692;51.074;-1.790;2024-01-07T03:14:13;16.08;;;7.03;;
78406;SDS011;67692;51.074;-1.790;2024-01-07T03:16:43;20.25;;;6.57;;
78406;SDS011;67692;51.074;-1.790;2024-01-07T03:19:09;17.55;;;6.70;;
78406;SDS011;67692;51.074;-1.790;2024-01-07T03:21:36;16.08;;;7.15;;
78406;SDS011;67692;51.074;-1.790;2024-01-07T03:24:03;16.23;;;6.28;;
78406;SDS011;67692;51.074;-1.790;2024-01-07T03:26:30;14.70;;;6.68;;
78406;SDS011;67692;51.074;-1.790;2024-01-07T03:28:57;21.35;;;6.50;;
78406;SDS011;67692;51.074;-1.790;2024-01-07T03:31:25;15.32;;;6.03;;
78406;SDS011;67692;51.074;-1.790;2024-01-07T03:33:53;15.23;;;7.00;;
78406;SDS011;67692;51.074;-1.790;2024-01-07T03:36:20;12.35;;;6.13;;
78406;SDS011;67692;51.074;-1.790;2024-01-07T03:38:47;15.27;;;6.05;;
78406;SDS011;67692;51.074;-1.790;2024-01-07T03:41:15;13.85;;;6.25;;
78406;SDS011;67692;51.074;-1.790;2024-01-07T03:43:43;15.88;;;6.03;;
78406;SDS011;67692;51.074;-1.790;2024-01-07T03:46:10;15.32;;;6.07;;
78406;SDS011;67692;51.074;-1.790;2024-01-07T03:48:37;11.80;;;5.00;;
78406;SDS011;67692;51.074;-1.790;2024-01-07T03:51:05;15.38;;;5.88;;
78406;SDS011;67692;51.074;-1.790;2024-01-07T03:53:32;14.13;;;6.25;;
78406;SDS011;67692;51.074;-1.790;2024-01-07T03:55:58;18.00;;;6.38;;
78406;SDS011;67692;51.074;-1.790;2024-01-07T03:58:25;17.10;;;6.00;;
78406;SDS011;67692;51.074;-1.790;2024-01-07T04:00:52;16.33;;;6.68;;
78406;SDS011;67692;51.074;-1.790;2024-01-07T04:03:18;11.25;;;5.32;;
78406;SDS011;67692;51.074;-1.790;2024-01-07T04:05:45;12.40;;;5.95;;
78406;SDS011;67692;51.074;-1.790;2024-01-07T04:08:13;15.23;;;5.90;;
78406;SDS011;67692;51.074;-1.790;2024-01-07T04:10:40;14.70;;;6.03;;
78406;SDS011;67692;51.074;-1.790;2024-01-07T04:13:07;13.50;;;6.38;;
78406;SDS011;67692;51.074;-1.790;2024-01-07T04:15:34;15.63;;;6.65;;
78406;SDS011;67692;51.074;-1.790;2024-01-07T04:18:01;14.93;;;6.97;;
78406;SDS011;67692;51.074;-1.790;2024-01-07T04:20:28;16.52;;;7.57;;
78406;SDS011;67692;51.074;-1.790;2024-01-07T04:22:55;15.82;;;7.43;;
78406;SDS011;67692;51.074;-1.790;2024-01-07T04:25:23;22.38;;;7.97;;
78406;SDS011;67692;51.074;-1.790;2024-01-07T04:27:50;16.63;;;7.90;;
78406;SDS011;67692;51.074;-1.790;2024-01-07T04:30:16;19.50;;;7.75;;
78406;SDS011;67692;51.074;-1.790;2024-01-07T04:32:43;15.32;;;7.07;;
78406;SDS011;67692;51.074;-1.790;2024-01-07T04:35:10;21.38;;;8.32;;
78406;SDS011;67692;51.074;-1.790;2024-01-07T04:37:37;17.92;;;8.23;;
78406;SDS011;67692;51.074;-1.790;2024-01-07T04:40:04;17.92;;;7.82;;
78406;SDS011;67692;51.074;-1.790;2024-01-07T04:42:33;19.67;;;7.32;;
78406;SDS011;67692;51.074;-1.790;2024-01-07T04:45:00;20.40;;;8.10;;
78406;SDS011;67692;51.074;-1.790;2024-01-07T04:47:26;16.23;;;7.68;;
78406;SDS011;67692;51.074;-1.790;2024-01-07T04:49:54;17.98;;;7.72;;
78406;SDS011;67692;51.074;-1.790;2024-01-07T04:52:21;17.92;;;7.68;;
78406;SDS011;67692;51.074;-1.790;2024-01-07T04:54:48;19.65;;;8.35;;
78406;SDS011;67692;51.074;-1.790;2024-01-07T04:57:16;18.95;;;7.47;;
78406;SDS011;67692;51.074;-1.790;2024-01-07T04:59:44;16.20;;;7.30;;
78406;SDS011;67692;51.074;-1.790;2024-01-07T05:02:11;19.65;;;8.00;;
78406;SDS011;67692;51.074;-1.790;2024-01-07T05:04:37;20.63;;;7.35;;
78406;SDS011;67692;51.074;-1.790;2024-01-07T05:07:05;19.38;;;8.10;;
78406;SDS011;67692;51.074;-1.790;2024-01-07T05:09:31;17.05;;;7.40;;
78406;SDS011;67692;51.074;-1.790;2024-01-07T05:11:58;21.52;;;9.02;;
78406;SDS011;67692;51.074;-1.790;2024-01-07T05:14:25;17.73;;;6.63;;
78406;SDS011;67692;51.074;-1.790;2024-01-07T05:16:54;15.43;;;6.97;;
78406;SDS011;67692;51.074;-1.790;2024-01-07T05:19:21;19.02;;;7.13;;
78406;SDS011;67692;51.074;-1.790;2024-01-07T05:21:48;16.80;;;6.68;;
78406;SDS011;67692;51.074;-1.790;2024-01-07T05:24:14;15.45;;;6.82;;
78406;SDS011;67692;51.074;-1.790;2024-01-07T05:26:41;16.85;;;6.70;;
78406;SDS011;67692;51.074;-1.790;2024-01-07T05:29:09;15.40;;;6.72;;
78406;SDS011;67692;51.074;-1.790;2024-01-07T05:31:36;18.42;;;6.43;;
78406;SDS011;67692;51.074;-1.790;2024-01-07T05:34:04;19.02;;;6.63;;
78406;SDS011;67692;51.074;-1.790;2024-01-07T05:36:31;12.57;;;6.00;;
78406;SDS011;67692;51.074;-1.790;2024-01-07T05:38:57;15.45;;;6.00;;
78406;SDS011;67692;51.074;-1.790;2024-01-07T05:41:24;15.13;;;5.00;;
78406;SDS011;67692;51.074;-1.790;2024-01-07T05:43:51;11.32;;;6.05;;
78406;SDS011;67692;51.074;-1.790;2024-01-07T05:46:17;13.90;;;5.38;;
78406;SDS011;67692;51.074;-1.790;2024-01-07T05:48:45;14.18;;;5.30;;
78406;SDS011;67692;51.074;-1.790;2024-01-07T05:51:14;12.15;;;5.25;;
78406;SDS011;67692;51.074;-1.790;2024-01-07T05:53:41;14.13;;;5.22;;
78406;SDS011;67692;51.074;-1.790;2024-01-07T05:56:08;12.75;;;4.80;;
78406;SDS011;67692;51.074;-1.790;2024-01-07T05:58:35;14.45;;;4.72;;
78406;SDS011;67692;51.074;-1.790;2024-01-07T06:01:01;9.48;;;4.10;;
78406;SDS011;67692;51.074;-1.790;2024-01-07T06:03:28;7.13;;;3.20;;
78406;SDS011;67692;51.074;-1.790;2024-01-07T06:05:55;12.63;;;3.00;;
78406;SDS011;67692;51.074;-1.790;2024-01-07T06:08:23;6.68;;;2.75;;
78406;SDS011;67692;51.074;-1.790;2024-01-07T06:10:49;8.25;;;2.65;;
78406;SDS011;67692;51.074;-1.790;2024-01-07T06:13:17;9.98;;;2.55;;
78406;SDS011;67692;51.074;-1.790;2024-01-07T06:15:43;5.93;;;2.45;;
78406;SDS011;67692;51.074;-1.790;2024-01-07T06:18:10;4.82;;;2.15;;
78406;SDS011;67692;51.074;-1.790;2024-01-07T06:20:37;8.63;;;2.83;;
78406;SDS011;67692;51.074;-1.790;2024-01-07T06:23:04;6.65;;;2.78;;
78406;SDS011;67692;51.074;-1.790;2024-01-07T06:25:32;7.60;;;2.05;;
78406;SDS011;67692;51.074;-1.790;2024-01-07T06:27:59;4.50;;;1.83;;
78406;SDS011;67692;51.074;-1.790;2024-01-07T06:30:25;8.38;;;2.35;;
78406;SDS011;67692;51.074;-1.790;2024-01-07T06:32:52;8.65;;;1.92;;
78406;SDS011;67692;51.074;-1.790;2024-01-07T06:35:19;10.23;;;2.05;;
78406;SDS011;67692;51.074;-1.790;2024-01-07T06:37:46;6.60;;;2.22;;
78406;SDS011;67692;51.074;-1.790;2024-01-07T06:40:13;6.55;;;1.90;;
78406;SDS011;67692;51.074;-1.790;2024-01-07T06:42:41;6.63;;;1.90;;
78406;SDS011;67692;51.074;-1.790;2024-01-07T06:45:09;6.75;;;2.05;;
78406;SDS011;67692;51.074;-1.790;2024-01-07T06:47:35;5.35;;;2.13;;
78406;SDS011;67692;51.074;-1.790;2024-01-07T06:50:02;23.63;;;2.53;;
78406;SDS011;67692;51.074;-1.790;2024-01-07T06:52:30;7.80;;;2.05;;
78406;SDS011;67692;51.074;-1.790;2024-01-07T06:54:56;5.88;;;1.63;;
78406;SDS011;67692;51.074;-1.790;2024-01-07T06:57:23;4.45;;;1.67;;
78406;SDS011;67692;51.074;-1.790;2024-01-07T06:59:51;6.95;;;1.40;;
78406;SDS011;67692;51.074;-1.790;2024-01-07T07:02:19;4.40;;;1.65;;
78406;SDS011;67692;51.074;-1.790;2024-01-07T07:04:46;8.18;;;1.92;;
78406;SDS011;67692;51.074;-1.790;2024-01-07T07:07:13;8.25;;;1.65;;
78406;SDS011;67692;51.074;-1.790;2024-01-07T07:09:40;5.05;;;1.42;;
78406;SDS011;67692;51.074;-1.790;2024-01-07T07:12:06;6.53;;;1.48;;
78406;SDS011;67692;51.074;-1.790;2024-01-07T07:14:33;3.55;;;1.45;;
78406;SDS011;67692;51.074;-1.790;2024-01-07T07:17:01;6.70;;;1.77;;
78406;SDS011;67692;51.074;-1.790;2024-01-07T07:19:28;5.50;;;1.50;;
78406;SDS011;67692;51.074;-1.790;2024-01-07T07:21:55;3.80;;;1.40;;
78406;SDS011;67692;51.074;-1.790;2024-01-07T07:24:22;3.55;;;1.67;;
78406;SDS011;67692;51.074;-1.790;2024-01-07T07:26:49;7.40;;;1.50;;
78406;SDS011;67692;51.074;-1.790;2024-01-07T07:29:15;3.15;;;1.13;;
78406;SDS011;67692;51.074;-1.790;2024-01-07T07:31:42;5.13;;;1.20;;
78406;SDS011;67692;51.074;-1.790;2024-01-07T07:34:10;3.72;;;1.15;;
78406;SDS011;67692;51.074;-1.790;2024-01-07T07:36:37;7.38;;;1.38;;
78406;SDS011;67692;51.074;-1.790;2024-01-07T07:39:05;3.83;;;1.20;;
78406;SDS011;67692;51.074;-1.790;2024-01-07T07:41:31;5.82;;;1.02;;
78406;SDS011;67692;51.074;-1.790;2024-01-07T07:43:58;3.40;;;1.05;;
78406;SDS011;67692;51.074;-1.790;2024-01-07T07:46:24;2.75;;;0.95;;
78406;SDS011;67692;51.074;-1.790;2024-01-07T07:48:51;2.03;;;0.75;;
78406;SDS011;67692;51.074;-1.790;2024-01-07T07:51:19;3.15;;;0.90;;
78406;SDS011;67692;51.074;-1.790;2024-01-07T07:53:46;5.60;;;1.25;;
78406;SDS011;67692;51.074;-1.790;2024-01-07T07:56:12;3.97;;;0.90;;
78406;SDS011;67692;51.074;-1.790;2024-01-07T07:58:39;2.05;;;0.70;;
78406;SDS011;67692;51.074;-1.790;2024-01-07T08:01:05;2.08;;;0.85;;
78406;SDS011;67692;51.074;-1.790;2024-01-07T08:03:32;2.88;;;0.98;;
78406;SDS011;67692;51.074;-1.790;2024-01-07T08:05:59;11.38;;;1.05;;
78406;SDS011;67692;51.074;-1.790;2024-01-07T08:08:27;2.97;;;1.02;;
78406;SDS011;67692;51.074;-1.790;2024-01-07T08:10:54;5.80;;;1.40;;
78406;SDS011;67692;51.074;-1.790;2024-01-07T08:13:21;3.95;;;1.15;;
78406;SDS011;67692;51.074;-1.790;2024-01-07T08:15:47;4.82;;;1.20;;
78406;SDS011;67692;51.074;-1.790;2024-01-07T08:18:14;4.82;;;0.90;;
78406;SDS011;67692;51.074;-1.790;2024-01-07T08:20:41;4.53;;;1.30;;
78406;SDS011;67692;51.074;-1.790;2024-01-07T08:23:07;3.40;;;1.30;;
78406;SDS011;67692;51.074;-1.790;2024-01-07T08:25:36;6.07;;;1.48;;
78406;SDS011;67692;51.074;-1.790;2024-01-07T08:28:03;2.55;;;0.75;;
78406;SDS011;67692;51.074;-1.790;2024-01-07T08:30:30;2.55;;;1.20;;
78406;SDS011;67692;51.074;-1.790;2024-01-07T08:32:57;6.07;;;1.13;;
78406;SDS011;67692;51.074;-1.790;2024-01-07T08:35:23;3.58;;;1.10;;
78406;SDS011;67692;51.074;-1.790;2024-01-07T08:37:50;7.50;;;1.40;;
78406;SDS011;67692;51.074;-1.790;2024-01-07T08:40:17;5.00;;;1.30;;
78406;SDS011;67692;51.074;-1.790;2024-01-07T08:42:45;5.72;;;1.17;;
78406;SDS011;67692;51.074;-1.790;2024-01-07T08:45:12;5.60;;;1.60;;
78406;SDS011;67692;51.074;-1.790;2024-01-07T08:47:38;4.40;;;1.48;;
78406;SDS011;67692;51.074;-1.790;2024-01-07T08:50:05;2.53;;;1.08;;
78406;SDS011;67692;51.074;-1.790;2024-01-07T08:52:33;17.45;;;4.82;;
78406;SDS011;67692;51.074;-1.790;2024-01-07T08:55:01;9.27;;;2.45;;
78406;SDS011;67692;51.074;-1.790;2024-01-07T08:57:28;3.38;;;1.42;;
78406;SDS011;67692;51.074;-1.790;2024-01-07T08:59:56;3.92;;;1.33;;
78406;SDS011;67692;51.074;-1.790;2024-01-07T09:02:22;4.55;;;1.20;;
78406;SDS011;67692;51.074;-1.790;2024-01-07T09:04:49;5.93;;;1.33;;
78406;SDS011;67692;51.074;-1.790;2024-01-07T09:07:16;4.43;;;1.17;;
78406;SDS011;67692;51.074;-1.790;2024-01-07T09:09:44;5.88;;;1.40;;
78406;SDS011;67692;51.074;-1.790;2024-01-07T09:12:10;5.57;;;1.15;;
78406;SDS011;67692;51.074;-1.790;2024-01-07T09:14:37;5.15;;;1.38;;
78406;SDS011;67692;51.074;-1.790;2024-01-07T09:17:06;4.28;;;1.67;;
78406;SDS011;67692;51.074;-1.790;2024-01-07T09:19:32;6.30;;;2.30;;
78406;SDS011;67692;51.074;-1.790;2024-01-07T09:21:59;8.10;;;1.95;;
78406;SDS011;67692;51.074;-1.790;2024-01-07T09:24:25;7.03;;;1.83;;
78406;SDS011;67692;51.074;-1.790;2024-01-07T09:26:52;8.15;;;2.92;;
78406;SDS011;67692;51.074;-1.790;2024-01-07T09:29:19;6.88;;;1.77;;
78406;SDS011;67692;51.074;-1.790;2024-01-07T09:31:45;3.63;;;1.45;;
78406;SDS011;67692;51.074;-1.790;2024-01-07T09:34:13;3.95;;;1.40;;
78406;SDS011;67692;51.074;-1.790;2024-01-07T09:36:40;5.65;;;1.95;;
78406;SDS011;67692;51.074;-1.790;2024-01-07T09:39:07;4.15;;;1.70;;
78406;SDS011;67692;51.074;-1.790;2024-01-07T09:41:34;5.88;;;1.50;;
78406;SDS011;67692;51.074;-1.790;2024-01-07T09:44:01;6.50;;;1.65;;
78406;SDS011;67692;51.074;-1.790;2024-01-07T09:46:29;10.73;;;1.70;;
78406;SDS011;67692;51.074;-1.790;2024-01-07T09:48:58;4.38;;;1.75;;
78406;SDS011;67692;51.074;-1.790;2024-01-07T09:51:26;5.32;;;2.17;;
78406;SDS011;67692;51.074;-1.790;2024-01-07T09:53:57;5.30;;;1.60;;
78406;SDS011;67692;51.074;-1.790;2024-01-07T09:56:30;4.78;;;1.50;;
78406;SDS011;67692;51.074;-1.790;2024-01-07T09:59:02;3.58;;;1.42;;
78406;SDS011;67692;51.074;-1.790;2024-01-07T10:01:29;8.77;;;1.60;;
78406;SDS011;67692;51.074;-1.790;2024-01-07T10:03:57;8.82;;;1.63;;
78406;SDS011;67692;51.074;-1.790;2024-01-07T10:06:25;7.22;;;1.65;;
78406;SDS011;67692;51.074;-1.790;2024-01-07T10:08:52;9.32;;;2.35;;
78406;SDS011;67692;51.074;-1.790;2024-01-07T10:11:19;5.38;;;2.00;;
78406;SDS011;67692;51.074;-1.790;2024-01-07T10:13:47;4.47;;;1.80;;
78406;SDS011;67692;51.074;-1.790;2024-01-07T10:16:16;8.40;;;1.65;;
78406;SDS011;67692;51.074;-1.790;2024-01-07T10:18:43;3.28;;;1.10;;
78406;SDS011;67692;51.074;-1.790;2024-01-07T10:21:09;5.07;;;1.75;;
78406;SDS011;67692;51.074;-1.790;2024-01-07T10:23:37;6.40;;;2.80;;
78406;SDS011;67692;51.074;-1.790;2024-01-07T10:26:04;7.32;;;1.98;;
78406;SDS011;67692;51.074;-1.790;2024-01-07T10:28:31;17.70;;;7.38;;
78406;SDS011;67692;51.074;-1.790;2024-01-07T10:30:57;6.05;;;1.98;;
78406;SDS011;67692;51.074;-1.790;2024-01-07T10:33:24;6.10;;;1.33;;
78406;SDS011;67692;51.074;-1.790;2024-01-07T10:35:51;3.35;;;1.20;;
78406;SDS011;67692;51.074;-1.790;2024-01-07T10:38:21;3.47;;;1.25;;
78406;SDS011;67692;51.074;-1.790;2024-01-07T10:40:50;6.13;;;1.73;;
78406;SDS011;67692;51.074;-1.790;2024-01-07T10:43:20;9.63;;;2.00;;
78406;SDS011;67692;51.074;-1.790;2024-01-07T10:45:47;7.78;;;2.15;;
78406;SDS011;67692;51.074;-1.790;2024-01-07T10:48:15;6.30;;;1.80;;
78406;SDS011;67692;51.074;-1.790;2024-01-07T10:50:44;9.45;;;2.25;;
78406;SDS011;67692;51.074;-1.790;2024-01-07T10:53:14;8.93;;;2.38;;
78406;SDS011;67692;51.074;-1.790;2024-01-07T10:55:45;9.07;;;2.22;;
78406;SDS011;67692;51.074;-1.790;2024-01-07T10:58:19;6.18;;;1.65;;
78406;SDS011;67692;51.074;-1.790;2024-01-07T11:00:46;6.38;;;1.70;;
78406;SDS011;67692;51.074;-1.790;2024-01-07T11:03:16;4.65;;;1.33;;
78406;SDS011;67692;51.074;-1.790;2024-01-07T11:05:48;4.18;;;1.80;;
78406;SDS011;67692;51.074;-1.790;2024-01-07T11:08:19;5.93;;;1.30;;
78406;SDS011;67692;51.074;-1.790;2024-01-07T11:10:55;4.72;;;1.30;;
78406;SDS011;67692;51.074;-1.790;2024-01-07T11:13:31;5.05;;;1.30;;
78406;SDS011;67692;51.074;-1.790;2024-01-07T11:15:59;5.35;;;1.13;;
78406;SDS011;67692;51.074;-1.790;2024-01-07T11:18:26;3.75;;;1.40;;
78406;SDS011;67692;51.074;-1.790;2024-01-07T11:20:58;4.57;;;1.10;;
78406;SDS011;67692;51.074;-1.790;2024-01-07T11:23:26;3.70;;;1.42;;
78406;SDS011;67692;51.074;-1.790;2024-01-07T11:25:56;3.03;;;1.15;;
78406;SDS011;67692;51.074;-1.790;2024-01-07T11:28:42;4.13;;;1.58;;
78406;SDS011;67692;51.074;-1.790;2024-01-07T11:31:13;9.45;;;1.75;;
78406;SDS011;67692;51.074;-1.790;2024-01-07T11:33:41;3.00;;;1.17;;
78406;SDS011;67692;51.074;-1.790;2024-01-07T11:36:10;6.82;;;1.10;;
78406;SDS011;67692;51.074;-1.790;2024-01-07T11:38:37;7.80;;;2.45;;
78406;SDS011;67692;51.074;-1.790;2024-01-07T11:41:08;7.32;;;1.48;;
78406;SDS011;67692;51.074;-1.790;2024-01-07T11:43:37;3.53;;;1.10;;
78406;SDS011;67692;51.074;-1.790;2024-01-07T11:46:03;3.25;;;0.77;;
78406;SDS011;67692;51.074;-1.790;2024-01-07T11:48:30;7.95;;;2.00;;
78406;SDS011;67692;51.074;-1.790;2024-01-07T11:50:57;3.00;;;0.95;;
78406;SDS011;67692;51.074;-1.790;2024-01-07T11:53:23;2.97;;;1.20;;
78406;SDS011;67692;51.074;-1.790;2024-01-07T11:55:50;3.17;;;0.80;;
78406;SDS011;67692;51.074;-1.790;2024-01-07T11:58:19;3.00;;;1.10;;
78406;SDS011;67692;51.074;-1.790;2024-01-07T12:00:45;9.38;;;1.35;;
78406;SDS011;67692;51.074;-1.790;2024-01-07T12:03:12;2.78;;;0.93;;
78406;SDS011;67692;51.074;-1.790;2024-01-07T12:05:40;4.47;;;1.02;;
78406;SDS011;67692;51.074;-1.790;2024-01-07T12:08:07;2.70;;;0.95;;
78406;SDS011;67692;51.074;-1.790;2024-01-07T12:10:33;4.38;;;0.90;;
78406;SDS011;67692;51.074;-1.790;2024-01-07T12:13:00;2.65;;;0.88;;
78406;SDS011;67692;51.074;-1.790;2024-01-07T12:15:30;1.88;;;0.80;;
78406;SDS011;67692;51.074;-1.790;2024-01-07T12:17:58;7.60;;;1.17;;
78406;SDS011;67692;51.074;-1.790;2024-01-07T12:20:26;11.68;;;3.28;;
78406;SDS011;67692;51.074;-1.790;2024-01-07T12:22:55;10.85;;;3.72;;
78406;SDS011;67692;51.074;-1.790;2024-01-07T12:25:24;7.93;;;3.10;;
78406;SDS011;67692;51.074;-1.790;2024-01-07T12:27:50;8.52;;;1.88;;
78406;SDS011;67692;51.074;-1.790;2024-01-07T12:30:19;5.47;;;2.10;;
78406;SDS011;67692;51.074;-1.790;2024-01-07T12:32:47;6.97;;;1.50;;
78406;SDS011;67692;51.074;-1.790;2024-01-07T12:35:17;5.30;;;1.27;;
78406;SDS011;67692;51.074;-1.790;2024-01-07T12:37:44;5.05;;;1.52;;
78406;SDS011;67692;51.074;-1.790;2024-01-07T12:40:11;2.60;;;1.00;;
78406;SDS011;67692;51.074;-1.790;2024-01-07T12:42:38;4.85;;;1.13;;
78406;SDS011;67692;51.074;-1.790;2024-01-07T12:45:09;26.55;;;4.53;;
78406;SDS011;67692;51.074;-1.790;2024-01-07T12:47:38;4.80;;;1.90;;
78406;SDS011;67692;51.074;-1.790;2024-01-07T12:50:07;2.83;;;0.80;;
78406;SDS011;67692;51.074;-1.790;2024-01-07T12:52:35;4.95;;;0.90;;
78406;SDS011;67692;51.074;-1.790;2024-01-07T12:55:02;4.50;;;1.10;;
78406;SDS011;67692;51.074;-1.790;2024-01-07T12:57:29;9.35;;;1.75;;
78406;SDS011;67692;51.074;-1.790;2024-01-07T12:59:56;4.47;;;1.40;;
78406;SDS011;67692;51.074;-1.790;2024-01-07T13:02:23;8.82;;;2.28;;
78406;SDS011;67692;51.074;-1.790;2024-01-07T13:04:50;5.88;;;1.42;;
78406;SDS011;67692;51.074;-1.790;2024-01-07T13:07:18;2.78;;;0.88;;
78406;SDS011;67692;51.074;-1.790;2024-01-07T13:09:44;5.85;;;1.98;;
78406;SDS011;67692;51.074;-1.790;2024-01-07T13:12:12;2.83;;;1.00;;
78406;SDS011;67692;51.074;-1.790;2024-01-07T13:14:38;3.83;;;1.00;;
78406;SDS011;67692;51.074;-1.790;2024-01-07T13:17:07;8.85;;;1.30;;
78406;SDS011;67692;51.074;-1.790;2024-01-07T13:19:34;7.47;;;1.65;;
78406;SDS011;67692;51.074;-1.790;2024-01-07T13:22:01;7.22;;;1.50;;
78406;SDS011;67692;51.074;-1.790;2024-01-07T13:24:29;4.15;;;1.23;;
78406;SDS011;67692;51.074;-1.790;2024-01-07T13:26:56;7.70;;;1.63;;
78406;SDS011;67692;51.074;-1.790;2024-01-07T13:29:23;3.67;;;1.15;;
78406;SDS011;67692;51.074;-1.790;2024-01-07T13:31:50;4.90;;;1.15;;
78406;SDS011;67692;51.074;-1.790;2024-01-07T13:34:16;2.90;;;1.00;;
78406;SDS011;67692;51.074;-1.790;2024-01-07T13:36:43;7.82;;;1.38;;
78406;SDS011;67692;51.074;-1.790;2024-01-07T13:39:10;4.57;;;1.30;;
78406;SDS011;67692;51.074;-1.790;2024-01-07T13:41:38;7.28;;;1.38;;
78406;SDS011;67692;51.074;-1.790;2024-01-07T13:44:05;4.75;;;1.15;;
78406;SDS011;67692;51.074;-1.790;2024-01-07T13:46:32;2.55;;;0.93;;
78406;SDS011;67692;51.074;-1.790;2024-01-07T13:48:59;3.10;;;0.70;;
78406;SDS011;67692;51.074;-1.790;2024-01-07T13:51:25;3.53;;;1.63;;
78406;SDS011;67692;51.074;-1.790;2024-01-07T13:53:52;3.92;;;1.08;;
78406;SDS011;67692;51.074;-1.790;2024-01-07T13:56:19;4.65;;;1.00;;
78406;SDS011;67692;51.074;-1.790;2024-01-07T13:58:47;5.05;;;1.88;;
78406;SDS011;67692;51.074;-1.790;2024-01-07T14:01:15;4.35;;;1.27;;
78406;SDS011;67692;51.074;-1.790;2024-01-07T14:03:42;10.30;;;2.75;;
78406;SDS011;67692;51.074;-1.790;2024-01-07T14:06:08;5.70;;;1.48;;
78406;SDS011;67692;51.074;-1.790;2024-01-07T14:08:36;8.68;;;1.42;;
78406;SDS011;67692;51.074;-1.790;2024-01-07T14:11:02;5.68;;;1.02;;
78406;SDS011;67692;51.074;-1.790;2024-01-07T14:13:32;5.88;;;1.30;;
78406;SDS011;67692;51.074;-1.790;2024-01-07T14:16:00;5.25;;;1.50;;
78406;SDS011;67692;51.074;-1.790;2024-01-07T14:18:27;8.88;;;2.42;;
78406;SDS011;67692;51.074;-1.790;2024-01-07T14:20:53;4.65;;;1.30;;
78406;SDS011;67692;51.074;-1.790;2024-01-07T14:23:20;13.85;;;3.55;;
78406;SDS011;67692;51.074;-1.790;2024-01-07T14:25:47;9.23;;;3.05;;
78406;SDS011;67692;51.074;-1.790;2024-01-07T14:28:13;5.22;;;2.22;;